Hastings, NE (68901)

7:39 AM CDT on April 19, 2015 (GMT -0500)
Oswego Park | | Change Station
CLOSE
Current Station
Personal Weather Station
Location: Hastings, NE
Elevation: 1949 ft
Nearby Weather Stations

Elev 1949 ft 40.59 °N, 98.41 °W | Updated 3 seconds ago

Light Rain
Light Rain Mist
47.8 °F
Feels Like 44 °F
N
7.8
Wind Variable Wind from North
Gusts 11.4 mph

Today
High -- | Low -- °F
--% Chance of Precip.
Yesterday
High -- | Low -- °F
Precip. -- in
6:49 AM 8:16 PM
New Moon, 1% visible
Pressure 29.81 in
Visibility 6.0 miles
Clouds Scattered Clouds 2100 ft
Mostly Cloudy 2600 ft
Overcast 5000 ft
Windchill 44 °F
Dew Point 46 °F
Humidity 92%
Rainfall 0.00 in
Snow Depth Not available.
UV 0 out of 12
Pollen 9.70 out of 12
Air Quality Not available.
Flu Activity Local Activity
SPECI KHSI 191226Z AUTO 36016KT 6SM -RA BR SCT021 BKN026 OVC050 11/09 A2981 RMK AO2 RAB01 P0000 T01060089

More Conditions Fewer Conditions

Pressure 29.81 in
Visibility 6.0 miles
Clouds Scattered Clouds 2100 ft
Mostly Cloudy 2600 ft
Overcast 5000 ft
Windchill 44 °F
Dew Point 46 °F
Humidity 92%
Rainfall 0.00 in
Snow Depth Not available.
UV 0 out of 12
Pollen 9.70 out of 12
Air Quality Not available.
Flu Activity Local Activity
SPECI KHSI 191226Z AUTO 36016KT 6SM -RA BR SCT021 BKN026 OVC050 11/09 A2981 RMK AO2 RAB01 P0000 T01060089

More Conditions Fewer Conditions

10-Day Weather Forecast

Almanac

Astronomy

Apr. 19, 2015 Rise Set
Actual Time
Civil Twilight
Nautical Twilight
Astronomical Twilight
Moon
Length of Visible Light
Length of Day
Tomorrow will be .
, % of the Moon is Illuminated

Today's Extremes

State Highs State Lows

Community

WunderPhotos

Upload Photos

1,814,771 photos uploaded!

WunderBlogs® & News

Nearby

Air Quality

  Air Quality AQ Index Pollutant
Not available.

Snow Depth

Station Depth Elevation

Earthquake Activity

City Distance Mag. Time & Date
Minimum magnitude displayed is 2.5.

Coastal Water Temperatures

Place Temperature

Stations

Nearby Weather Stations

Station Location Temp. Windchill Dew Point Humidity Wind Precip. Elev Updated Type